sensor_id;sensor_type;location;lat;lon;timestamp;pressure;altitude;pressure_sealevel;temperature;humidity
47082;BME280;33066;49.296;14.470;2023-06-22T00:00:01;97265.25;;;24.32;43.65
47082;BME280;33066;49.296;14.470;2023-06-22T00:02:27;97267.56;;;24.29;43.53
47082;BME280;33066;49.296;14.470;2023-06-22T00:04:52;97270.90;;;24.51;43.46
47082;BME280;33066;49.296;14.470;2023-06-22T00:07:18;97275.01;;;24.22;43.64
47082;BME280;33066;49.296;14.470;2023-06-22T00:09:44;97276.72;;;24.43;43.68
47082;BME280;33066;49.296;14.470;2023-06-22T00:12:09;97276.81;;;24.40;43.47
47082;BME280;33066;49.296;14.470;2023-06-22T00:14:35;97275.44;;;24.33;43.53
47082;BME280;33066;49.296;14.470;2023-06-22T00:17:00;97272.47;;;24.07;43.55
47082;BME280;33066;49.296;14.470;2023-06-22T00:19:25;97271.18;;;24.28;43.59
47082;BME280;33066;49.296;14.470;2023-06-22T00:21:52;97268.21;;;24.30;43.52
47082;BME280;33066;49.296;14.470;2023-06-22T00:24:15;97268.88;;;23.80;43.51
47082;BME280;33066;49.296;14.470;2023-06-22T00:26:40;97268.67;;;24.24;43.58
47082;BME280;33066;49.296;14.470;2023-06-22T00:29:05;97270.40;;;24.20;43.67
47082;BME280;33066;49.296;14.470;2023-06-22T00:31:31;97272.50;;;24.20;43.62
47082;BME280;33066;49.296;14.470;2023-06-22T00:33:56;97277.68;;;24.17;43.66
47082;BME280;33066;49.296;14.470;2023-06-22T00:36:21;97281.07;;;24.19;43.69
47082;BME280;33066;49.296;14.470;2023-06-22T00:38:46;97279.93;;;24.18;43.59
47082;BME280;33066;49.296;14.470;2023-06-22T00:41:12;97277.14;;;24.19;43.51
47082;BME280;33066;49.296;14.470;2023-06-22T00:43:38;97277.28;;;23.96;43.50
47082;BME280;33066;49.296;14.470;2023-06-22T00:46:05;97279.71;;;24.19;43.39
47082;BME280;33066;49.296;14.470;2023-06-22T00:48:28;97281.51;;;24.15;43.49
47082;BME280;33066;49.296;14.470;2023-06-22T00:50:53;97279.19;;;24.16;43.41
47082;BME280;33066;49.296;14.470;2023-06-22T00:53:18;97278.13;;;23.87;43.54
47082;BME280;33066;49.296;14.470;2023-06-22T00:55:44;97273.40;;;24.13;43.43
47082;BME280;33066;49.296;14.470;2023-06-22T00:58:09;97268.80;;;24.11;43.47
47082;BME280;33066;49.296;14.470;2023-06-22T01:00:34;97265.79;;;24.08;43.40
47082;BME280;33066;49.296;14.470;2023-06-22T01:02:59;97265.12;;;23.83;43.35
47082;BME280;33066;49.296;14.470;2023-06-22T01:05:25;97263.80;;;24.12;43.42
47082;BME280;33066;49.296;14.470;2023-06-22T01:08:02;97262.50;;;24.15;43.46
47082;BME280;33066;49.296;14.470;2023-06-22T01:10:22;97262.95;;;24.16;43.36
47082;BME280;33066;49.296;14.470;2023-06-22T01:12:48;97261.85;;;24.14;43.29
47082;BME280;33066;49.296;14.470;2023-06-22T01:15:10;97256.06;;;24.14;43.36
47082;BME280;33066;49.296;14.470;2023-06-22T01:17:35;97254.59;;;24.14;43.33
47082;BME280;33066;49.296;14.470;2023-06-22T01:19:58;97254.30;;;23.87;43.26
47082;BME280;33066;49.296;14.470;2023-06-22T01:22:25;97246.72;;;24.03;43.24
47082;BME280;33066;49.296;14.470;2023-06-22T01:24:57;97246.42;;;24.21;43.29
47082;BME280;33066;49.296;14.470;2023-06-22T01:27:25;97242.54;;;23.91;43.36
47082;BME280;33066;49.296;14.470;2023-06-22T01:29:39;97247.48;;;23.63;43.45
47082;BME280;33066;49.296;14.470;2023-06-22T01:32:06;97252.31;;;23.86;43.54
47082;BME280;33066;49.296;14.470;2023-06-22T01:34:31;97252.15;;;23.78;43.40
47082;BME280;33066;49.296;14.470;2023-06-22T01:36:55;97250.99;;;23.74;43.45
47082;BME280;33066;49.296;14.470;2023-06-22T01:39:21;97251.61;;;23.72;43.40
47082;BME280;33066;49.296;14.470;2023-06-22T01:41:47;97246.69;;;23.71;43.33
47082;BME280;33066;49.296;14.470;2023-06-22T01:44:10;97246.61;;;23.69;43.55
47082;BME280;33066;49.296;14.470;2023-06-22T01:46:36;97245.47;;;23.69;43.60
47082;BME280;33066;49.296;14.470;2023-06-22T01:49:01;97250.47;;;24.01;43.70
47082;BME280;33066;49.296;14.470;2023-06-22T01:51:25;97250.64;;;23.85;43.57
47082;BME280;33066;49.296;14.470;2023-06-22T01:53:50;97248.30;;;23.92;43.54
47082;BME280;33066;49.296;14.470;2023-06-22T01:56:17;97244.00;;;23.94;43.55
47082;BME280;33066;49.296;14.470;2023-06-22T01:58:47;97241.62;;;23.94;43.56
47082;BME280;33066;49.296;14.470;2023-06-22T02:01:11;97248.58;;;23.95;43.51
47082;BME280;33066;49.296;14.470;2023-06-22T02:03:36;97250.92;;;23.95;43.39
47082;BME280;33066;49.296;14.470;2023-06-22T02:06:03;97251.83;;;24.00;42.99
47082;BME280;33066;49.296;14.470;2023-06-22T02:08:27;97253.14;;;24.01;42.79
47082;BME280;33066;49.296;14.470;2023-06-22T02:10:47;97254.16;;;23.93;42.81
47082;BME280;33066;49.296;14.470;2023-06-22T02:13:13;97253.19;;;23.86;42.81
47082;BME280;33066;49.296;14.470;2023-06-22T02:15:37;97256.68;;;24.11;42.80
47082;BME280;33066;49.296;14.470;2023-06-22T02:18:02;97256.82;;;23.87;42.76
47082;BME280;33066;49.296;14.470;2023-06-22T02:20:27;97252.93;;;23.87;42.63
47082;BME280;33066;49.296;14.470;2023-06-22T02:22:52;97246.50;;;23.84;42.50
47082;BME280;33066;49.296;14.470;2023-06-22T02:25:17;97240.51;;;23.80;42.35
47082;BME280;33066;49.296;14.470;2023-06-22T02:27:42;97242.18;;;23.74;42.40
47082;BME280;33066;49.296;14.470;2023-06-22T02:30:08;97241.39;;;23.73;42.44
47082;BME280;33066;49.296;14.470;2023-06-22T02:32:32;97235.07;;;23.96;42.40
47082;BME280;33066;49.296;14.470;2023-06-22T02:34:57;97228.43;;;23.74;42.48
47082;BME280;33066;49.296;14.470;2023-06-22T02:37:22;97229.36;;;23.67;42.59
47082;BME280;33066;49.296;14.470;2023-06-22T02:39:47;97235.13;;;23.94;42.48
47082;BME280;33066;49.296;14.470;2023-06-22T02:42:12;97242.38;;;23.85;42.52
47082;BME280;33066;49.296;14.470;2023-06-22T02:44:38;97247.52;;;23.63;42.52
47082;BME280;33066;49.296;14.470;2023-06-22T02:47:03;97240.65;;;23.61;42.41
47082;BME280;33066;49.296;14.470;2023-06-22T02:49:28;97237.54;;;23.55;42.30
47082;BME280;33066;49.296;14.470;2023-06-22T02:51:53;97237.06;;;23.57;42.39
47082;BME280;33066;49.296;14.470;2023-06-22T02:54:18;97232.24;;;23.57;42.42
47082;BME280;33066;49.296;14.470;2023-06-22T02:56:43;97233.82;;;23.58;42.46
47082;BME280;33066;49.296;14.470;2023-06-22T02:59:08;97233.37;;;23.56;42.41
47082;BME280;33066;49.296;14.470;2023-06-22T03:01:33;97231.44;;;23.51;42.42
47082;BME280;33066;49.296;14.470;2023-06-22T03:03:58;97227.09;;;23.51;42.41
47082;BME280;33066;49.296;14.470;2023-06-22T03:06:23;97223.16;;;23.77;42.53
47082;BME280;33066;49.296;14.470;2023-06-22T03:08:48;97222.86;;;23.79;42.50
47082;BME280;33066;49.296;14.470;2023-06-22T03:13:00;97228.15;;;24.02;41.89
47082;BME280;33066;49.296;14.470;2023-06-22T03:15:25;97232.08;;;23.94;41.95
47082;BME280;33066;49.296;14.470;2023-06-22T03:17:50;97238.04;;;23.82;42.00
47082;BME280;33066;49.296;14.470;2023-06-22T03:20:15;97243.13;;;24.01;42.24
47082;BME280;33066;49.296;14.470;2023-06-22T03:22:41;97242.19;;;23.74;42.13
47082;BME280;33066;49.296;14.470;2023-06-22T03:25:06;97236.21;;;23.69;42.22
47082;BME280;33066;49.296;14.470;2023-06-22T03:27:30;97234.49;;;23.91;42.30
47082;BME280;33066;49.296;14.470;2023-06-22T03:29:57;97234.67;;;23.88;42.33
47082;BME280;33066;49.296;14.470;2023-06-22T03:32:20;97230.95;;;23.59;42.50
47082;BME280;33066;49.296;14.470;2023-06-22T03:34:45;97233.66;;;23.61;42.53
47082;BME280;33066;49.296;14.470;2023-06-22T03:37:10;97233.80;;;23.63;42.47
47082;BME280;33066;49.296;14.470;2023-06-22T03:39:35;97234.77;;;23.61;42.52
47082;BME280;33066;49.296;14.470;2023-06-22T03:42:00;97235.85;;;23.87;42.53
47082;BME280;33066;49.296;14.470;2023-06-22T03:44:25;97232.80;;;23.64;42.55
47082;BME280;33066;49.296;14.470;2023-06-22T03:46:51;97228.05;;;23.70;42.56
47082;BME280;33066;49.296;14.470;2023-06-22T03:49:15;97229.85;;;23.67;42.55
47082;BME280;33066;49.296;14.470;2023-06-22T03:51:41;97237.29;;;23.60;42.59
47082;BME280;33066;49.296;14.470;2023-06-22T03:54:06;97237.12;;;23.58;42.77
47082;BME280;33066;49.296;14.470;2023-06-22T03:56:31;97236.54;;;23.58;42.86
47082;BME280;33066;49.296;14.470;2023-06-22T03:58:56;97235.06;;;23.53;42.97
47082;BME280;33066;49.296;14.470;2023-06-22T04:01:21;97233.65;;;23.77;42.88
47082;BME280;33066;49.296;14.470;2023-06-22T04:03:46;97233.85;;;23.71;43.01
47082;BME280;33066;49.296;14.470;2023-06-22T04:06:11;97231.88;;;23.47;43.07
47082;BME280;33066;49.296;14.470;2023-06-22T04:08:36;97233.75;;;23.71;43.25
47082;BME280;33066;49.296;14.470;2023-06-22T04:11:02;97233.59;;;23.73;43.27
47082;BME280;33066;49.296;14.470;2023-06-22T04:13:28;97231.30;;;23.78;43.45
47082;BME280;33066;49.296;14.470;2023-06-22T04:15:52;97224.49;;;23.90;43.38
47082;BME280;33066;49.296;14.470;2023-06-22T04:18:18;97224.20;;;23.89;43.35
47082;BME280;33066;49.296;14.470;2023-06-22T04:20:43;97227.48;;;23.71;43.51
47082;BME280;33066;49.296;14.470;2023-06-22T04:23:09;97227.86;;;23.72;43.41
47082;BME280;33066;49.296;14.470;2023-06-22T04:25:35;97229.21;;;23.78;43.54
47082;BME280;33066;49.296;14.470;2023-06-22T04:27:59;97232.45;;;23.84;43.47
47082;BME280;33066;49.296;14.470;2023-06-22T04:30:24;97231.80;;;23.83;43.48
47082;BME280;33066;49.296;14.470;2023-06-22T04:32:49;97234.65;;;24.13;43.47
47082;BME280;33066;49.296;14.470;2023-06-22T04:35:15;97233.67;;;23.88;43.29
47082;BME280;33066;49.296;14.470;2023-06-22T04:37:40;97232.72;;;23.88;43.27
47082;BME280;33066;49.296;14.470;2023-06-22T04:40:06;97231.54;;;23.71;43.42
47082;BME280;33066;49.296;14.470;2023-06-22T04:42:30;97230.08;;;23.70;43.24
47082;BME280;33066;49.296;14.470;2023-06-22T04:44:56;97230.56;;;23.65;43.15
47082;BME280;33066;49.296;14.470;2023-06-22T04:47:22;97229.46;;;23.89;43.31
47082;BME280;33066;49.296;14.470;2023-06-22T04:49:46;97220.73;;;24.14;43.39
47082;BME280;33066;49.296;14.470;2023-06-22T04:52:12;97223.25;;;23.97;43.61
47082;BME280;33066;49.296;14.470;2023-06-22T04:54:37;97228.08;;;24.04;43.28
47082;BME280;33066;49.296;14.470;2023-06-22T04:57:01;97229.42;;;23.90;43.27
47082;BME280;33066;49.296;14.470;2023-06-22T04:59:29;97223.93;;;24.21;43.29
47082;BME280;33066;49.296;14.470;2023-06-22T05:01:52;97222.20;;;24.21;43.25
47082;BME280;33066;49.296;14.470;2023-06-22T05:04:17;97226.62;;;24.06;43.38
47082;BME280;33066;49.296;14.470;2023-06-22T05:06:43;97232.13;;;24.34;43.02
47082;BME280;33066;49.296;14.470;2023-06-22T05:09:08;97236.80;;;24.32;42.93
47082;BME280;33066;49.296;14.470;2023-06-22T05:11:33;97239.48;;;24.08;43.04
47082;BME280;33066;49.296;14.470;2023-06-22T05:13:58;97238.67;;;24.19;43.09
47082;BME280;33066;49.296;14.470;2023-06-22T05:16:24;97242.88;;;24.50;43.01
47082;BME280;33066;49.296;14.470;2023-06-22T05:18:50;97242.56;;;24.36;42.97
47082;BME280;33066;49.296;14.470;2023-06-22T05:21:15;97245.92;;;24.17;42.94
47082;BME280;33066;49.296;14.470;2023-06-22T05:23:40;97245.24;;;24.69;43.02
47082;BME280;33066;49.296;14.470;2023-06-22T05:26:05;97244.71;;;24.55;42.93
47082;BME280;33066;49.296;14.470;2023-06-22T05:28:33;97242.97;;;24.83;42.93
47082;BME280;33066;49.296;14.470;2023-06-22T05:30:56;97245.86;;;24.63;42.82
47082;BME280;33066;49.296;14.470;2023-06-22T05:33:21;97251.10;;;24.40;42.87
47082;BME280;33066;49.296;14.470;2023-06-22T05:35:46;97246.59;;;24.69;43.00
47082;BME280;33066;49.296;14.470;2023-06-22T05:38:11;97243.91;;;24.81;43.07
47082;BME280;33066;49.296;14.470;2023-06-22T05:40:36;97241.04;;;25.19;42.45
47082;BME280;33066;49.296;14.470;2023-06-22T05:43:02;97240.30;;;25.14;42.53
47082;BME280;33066;49.296;14.470;2023-06-22T05:45:27;97240.42;;;25.14;42.63
47082;BME280;33066;49.296;14.470;2023-06-22T05:47:53;97245.24;;;24.81;42.77
47082;BME280;33066;49.296;14.470;2023-06-22T05:50:19;97246.67;;;25.31;42.89
47082;BME280;33066;49.296;14.470;2023-06-22T05:52:43;97245.22;;;24.90;42.99
47082;BME280;33066;49.296;14.470;2023-06-22T05:55:09;97248.44;;;24.94;43.36
47082;BME280;33066;49.296;14.470;2023-06-22T05:57:34;97244.83;;;24.99;43.13
47082;BME280;33066;49.296;14.470;2023-06-22T06:00:00;97246.79;;;25.22;43.24
47082;BME280;33066;49.296;14.470;2023-06-22T06:02:25;97248.19;;;24.99;43.42
47082;BME280;33066;49.296;14.470;2023-06-22T06:04:52;97253.95;;;25.16;43.47
47082;BME280;33066;49.296;14.470;2023-06-22T06:07:18;97257.88;;;25.00;43.41
47082;BME280;33066;49.296;14.470;2023-06-22T06:09:42;97256.83;;;25.34;43.17
47082;BME280;33066;49.296;14.470;2023-06-22T06:12:08;97257.83;;;25.42;42.96
47082;BME280;33066;49.296;14.470;2023-06-22T06:14:33;97256.44;;;25.45;42.81
47082;BME280;33066;49.296;14.470;2023-06-22T06:16:58;97261.76;;;25.32;43.02
47082;BME280;33066;49.296;14.470;2023-06-22T06:19:24;97268.62;;;25.68;43.08
47082;BME280;33066;49.296;14.470;2023-06-22T06:21:50;97270.96;;;25.53;42.83
47082;BME280;33066;49.296;14.470;2023-06-22T06:24:17;97273.26;;;25.62;42.77
47082;BME280;33066;49.296;14.470;2023-06-22T06:26:42;97271.82;;;26.01;42.79
47082;BME280;33066;49.296;14.470;2023-06-22T06:29:07;97268.51;;;26.14;42.68
47082;BME280;33066;49.296;14.470;2023-06-22T06:31:32;97268.09;;;25.72;42.40
47082;BME280;33066;49.296;14.470;2023-06-22T06:33:58;97263.36;;;26.01;42.40
47082;BME280;33066;49.296;14.470;2023-06-22T06:36:23;97264.62;;;26.06;42.44
47082;BME280;33066;49.296;14.470;2023-06-22T06:38:49;97261.15;;;26.11;42.45
47082;BME280;33066;49.296;14.470;2023-06-22T06:41:15;97265.82;;;25.90;42.54
47082;BME280;33066;49.296;14.470;2023-06-22T06:43:40;97267.19;;;26.19;42.58
47082;BME280;33066;49.296;14.470;2023-06-22T06:46:05;97263.99;;;25.99;42.60
47082;BME280;33066;49.296;14.470;2023-06-22T06:48:30;97260.89;;;26.24;42.59
47082;BME280;33066;49.296;14.470;2023-06-22T06:50:56;97259.35;;;26.09;42.65
47082;BME280;33066;49.296;14.470;2023-06-22T06:53:22;97254.87;;;26.15;42.68
47082;BME280;33066;49.296;14.470;2023-06-22T06:55:48;97249.78;;;26.42;42.71
47082;BME280;33066;49.296;14.470;2023-06-22T06:58:13;97248.05;;;26.28;42.72
47082;BME280;33066;49.296;14.470;2023-06-22T07:00:39;97248.73;;;26.34;42.79
47082;BME280;33066;49.296;14.470;2023-06-22T07:03:04;97246.98;;;26.32;43.01
47082;BME280;33066;49.296;14.470;2023-06-22T07:05:29;97245.95;;;26.45;43.02
47082;BME280;33066;49.296;14.470;2023-06-22T07:07:55;97240.20;;;26.47;42.99
47082;BME280;33066;49.296;14.470;2023-06-22T07:10:21;97234.29;;;26.57;42.97
47082;BME280;33066;49.296;14.470;2023-06-22T07:12:46;97222.37;;;26.63;42.93
47082;BME280;33066;49.296;14.470;2023-06-22T07:15:13;97217.75;;;26.16;43.00
47082;BME280;33066;49.296;14.470;2023-06-22T07:17:40;97214.13;;;26.62;43.13
47082;BME280;33066;49.296;14.470;2023-06-22T07:20:04;97214.72;;;26.68;43.39
47082;BME280;33066;49.296;14.470;2023-06-22T07:22:28;97212.04;;;26.43;43.42
47082;BME280;33066;49.296;14.470;2023-06-22T07:24:54;97213.53;;;26.47;43.52
47082;BME280;33066;49.296;14.470;2023-06-22T07:27:19;97217.64;;;26.77;43.50
47082;BME280;33066;49.296;14.470;2023-06-22T07:29:44;97222.28;;;26.58;43.51
47082;BME280;33066;49.296;14.470;2023-06-22T07:32:10;97224.01;;;26.60;43.61
47082;BME280;33066;49.296;14.470;2023-06-22T07:34:35;97224.22;;;26.64;43.41
47082;BME280;33066;49.296;14.470;2023-06-22T07:37:03;97223.41;;;26.97;43.67
47082;BME280;33066;49.296;14.470;2023-06-22T07:39:26;97223.78;;;26.65;43.67
47082;BME280;33066;49.296;14.470;2023-06-22T07:41:52;97225.77;;;26.69;43.64
47082;BME280;33066;49.296;14.470;2023-06-22T07:44:17;97225.14;;;26.96;43.60
47082;BME280;33066;49.296;14.470;2023-06-22T07:46:42;97218.07;;;26.75;43.89
47082;BME280;33066;49.296;14.470;2023-06-22T07:49:08;97214.87;;;26.55;43.88
47082;BME280;33066;49.296;14.470;2023-06-22T07:51:33;97205.42;;;26.60;43.89
47082;BME280;33066;49.296;14.470;2023-06-22T07:53:58;97203.23;;;26.93;43.94
47082;BME280;33066;49.296;14.470;2023-06-22T07:56:25;97199.28;;;26.77;43.81
47082;BME280;33066;49.296;14.470;2023-06-22T07:58:49;97193.45;;;27.09;43.72
47082;BME280;33066;49.296;14.470;2023-06-22T08:01:15;97192.08;;;26.92;43.76
47082;BME280;33066;49.296;14.470;2023-06-22T08:03:40;97186.27;;;27.51;43.69
47082;BME280;33066;49.296;14.470;2023-06-22T08:06:05;97181.70;;;27.10;43.80
47082;BME280;33066;49.296;14.470;2023-06-22T08:08:32;97183.70;;;27.19;43.77
47082;BME280;33066;49.296;14.470;2023-06-22T08:10:56;97184.35;;;27.28;43.62
47082;BME280;33066;49.296;14.470;2023-06-22T08:13:21;97182.03;;;27.36;43.89
47082;BME280;33066;49.296;14.470;2023-06-22T08:15:46;97176.87;;;27.48;43.79
47082;BME280;33066;49.296;14.470;2023-06-22T08:18:12;97176.63;;;27.56;43.67
47082;BME280;33066;49.296;14.470;2023-06-22T08:20:40;97179.54;;;27.65;43.82
47082;BME280;33066;49.296;14.470;2023-06-22T08:23:03;97181.94;;;27.52;43.70
47082;BME280;33066;49.296;14.470;2023-06-22T08:25:29;97178.99;;;27.86;43.54
47082;BME280;33066;49.296;14.470;2023-06-22T08:27:55;97182.32;;;27.91;43.45
47082;BME280;33066;49.296;14.470;2023-06-22T08:30:20;97179.27;;;27.85;43.58
47082;BME280;33066;49.296;14.470;2023-06-22T08:32:46;97174.41;;;27.62;43.38
47082;BME280;33066;49.296;14.470;2023-06-22T08:35:11;97168.21;;;27.74;43.39
47082;BME280;33066;49.296;14.470;2023-06-22T08:37:37;97161.68;;;28.13;43.32
47082;BME280;33066;49.296;14.470;2023-06-22T08:40:06;97162.79;;;28.32;43.83
47082;BME280;33066;49.296;14.470;2023-06-22T08:42:28;97164.80;;;28.04;43.66
47082;BME280;33066;49.296;14.470;2023-06-22T08:44:55;97162.65;;;28.18;43.60
47082;BME280;33066;49.296;14.470;2023-06-22T08:47:18;97163.69;;;28.29;43.54
47082;BME280;33066;49.296;14.470;2023-06-22T08:49:44;97163.06;;;28.56;42.51
47082;BME280;33066;49.296;14.470;2023-06-22T08:52:10;97161.71;;;28.70;42.24
47082;BME280;33066;49.296;14.470;2023-06-22T08:54:35;97161.57;;;28.84;42.37
47082;BME280;33066;49.296;14.470;2023-06-22T08:57:00;97157.37;;;28.90;42.19
47082;BME280;33066;49.296;14.470;2023-06-22T08:59:25;97153.92;;;28.97;42.03
47082;BME280;33066;49.296;14.470;2023-06-22T09:01:51;97147.72;;;28.86;41.90
47082;BME280;33066;49.296;14.470;2023-06-22T09:04:16;97142.31;;;28.71;41.08
47082;BME280;33066;49.296;14.470;2023-06-22T09:06:42;97142.04;;;28.96;40.74
47082;BME280;33066;49.296;14.470;2023-06-22T09:09:07;97142.61;;;29.03;40.97
47082;BME280;33066;49.296;14.470;2023-06-22T09:11:33;97137.90;;;28.90;40.48
47082;BME280;33066;49.296;14.470;2023-06-22T09:13:59;97134.38;;;29.14;40.36
47082;BME280;33066;49.296;14.470;2023-06-22T09:16:24;97132.20;;;29.15;40.48
47082;BME280;33066;49.296;14.470;2023-06-22T09:18:50;97133.18;;;29.05;39.40
47082;BME280;33066;49.296;14.470;2023-06-22T09:21:16;97134.39;;;28.93;39.63
47082;BME280;33066;49.296;14.470;2023-06-22T09:23:41;97134.08;;;29.19;39.55
47082;BME280;33066;49.296;14.470;2023-06-22T09:26:07;97135.21;;;29.04;40.10
47082;BME280;33066;49.296;14.470;2023-06-22T09:28:33;97135.99;;;29.32;40.02
47082;BME280;33066;49.296;14.470;2023-06-22T09:30:59;97138.87;;;29.39;39.92
47082;BME280;33066;49.296;14.470;2023-06-22T09:33:25;97140.73;;;28.95;39.69
47082;BME280;33066;49.296;14.470;2023-06-22T09:35:51;97134.38;;;28.91;39.30
47082;BME280;33066;49.296;14.470;2023-06-22T09:38:16;97130.99;;;29.38;39.53
47082;BME280;33066;49.296;14.470;2023-06-22T09:40:42;97129.64;;;29.18;39.85
47082;BME280;33066;49.296;14.470;2023-06-22T09:43:07;97125.24;;;29.56;39.99
47082;BME280;33066;49.296;14.470;2023-06-22T09:45:32;97126.23;;;29.23;40.30
47082;BME280;33066;49.296;14.470;2023-06-22T09:47:58;97127.04;;;29.76;40.08
47082;BME280;33066;49.296;14.470;2023-06-22T09:50:23;97123.27;;;29.86;39.87
47082;BME280;33066;49.296;14.470;2023-06-22T09:52:49;97122.10;;;29.84;40.30
47082;BME280;33066;49.296;14.470;2023-06-22T09:55:15;97117.94;;;29.76;40.22
47082;BME280;33066;49.296;14.470;2023-06-22T09:57:40;97113.85;;;29.77;38.92
47082;BME280;33066;49.296;14.470;2023-06-22T10:00:07;97107.18;;;29.94;38.52
47082;BME280;33066;49.296;14.470;2023-06-22T10:02:31;97100.83;;;30.11;38.74
47082;BME280;33066;49.296;14.470;2023-06-22T10:04:57;97095.69;;;30.20;38.45
47082;BME280;33066;49.296;14.470;2023-06-22T10:07:22;97097.74;;;30.31;38.06
47082;BME280;33066;49.296;14.470;2023-06-22T10:09:48;97097.04;;;30.35;37.31
47082;BME280;33066;49.296;14.470;2023-06-22T10:12:14;97095.72;;;30.42;37.10
47082;BME280;33066;49.296;14.470;2023-06-22T10:14:40;97099.77;;;30.58;37.18
47082;BME280;33066;49.296;14.470;2023-06-22T10:17:05;97097.47;;;30.82;36.64
47082;BME280;33066;49.296;14.470;2023-06-22T10:19:32;97093.08;;;30.91;35.91
47082;BME280;33066;49.296;14.470;2023-06-22T10:21:56;97091.98;;;31.08;36.07
47082;BME280;33066;49.296;14.470;2023-06-22T10:24:21;97093.56;;;31.41;35.80
47082;BME280;33066;49.296;14.470;2023-06-22T10:26:47;97085.79;;;31.55;36.07
47082;BME280;33066;49.296;14.470;2023-06-22T10:29:12;97086.89;;;31.86;34.43
47082;BME280;33066;49.296;14.470;2023-06-22T10:31:38;97090.54;;;32.17;33.57
47082;BME280;33066;49.296;14.470;2023-06-22T10:34:03;97091.83;;;32.21;34.02
47082;BME280;33066;49.296;14.470;2023-06-22T10:36:29;97091.15;;;32.32;33.31
47082;BME280;33066;49.296;14.470;2023-06-22T10:38:54;97090.66;;;32.63;33.67
47082;BME280;33066;49.296;14.470;2023-06-22T10:41:20;97091.08;;;32.86;32.81
47082;BME280;33066;49.296;14.470;2023-06-22T10:43:45;97086.01;;;33.14;32.55
47082;BME280;33066;49.296;14.470;2023-06-22T10:46:11;97083.33;;;32.74;32.57
47082;BME280;33066;49.296;14.470;2023-06-22T10:48:36;97078.25;;;32.94;32.17
47082;BME280;33066;49.296;14.470;2023-06-22T10:51:02;97078.72;;;33.26;31.70
47082;BME280;33066;49.296;14.470;2023-06-22T10:53:27;97080.62;;;33.04;31.40
47082;BME280;33066;49.296;14.470;2023-06-22T10:55:53;97073.03;;;33.34;31.51
47082;BME280;33066;49.296;14.470;2023-06-22T10:58:18;97066.92;;;33.56;31.93
47082;BME280;33066;49.296;14.470;2023-06-22T11:00:44;97067.48;;;33.64;32.08
47082;BME280;33066;49.296;14.470;2023-06-22T11:03:09;97065.05;;;33.79;31.72
47082;BME280;33066;49.296;14.470;2023-06-22T11:05:35;97064.30;;;34.03;33.59
47082;BME280;33066;49.296;14.470;2023-06-22T11:08:01;97063.39;;;34.01;32.86
47082;BME280;33066;49.296;14.470;2023-06-22T11:10:26;97060.58;;;34.08;31.21
47082;BME280;33066;49.296;14.470;2023-06-22T11:12:51;97057.59;;;34.23;31.36
47082;BME280;33066;49.296;14.470;2023-06-22T11:15:18;97061.86;;;33.99;30.46
47082;BME280;33066;49.296;14.470;2023-06-22T11:17:43;97055.01;;;34.38;31.00
47082;BME280;33066;49.296;14.470;2023-06-22T11:20:09;97046.80;;;34.35;31.04
47082;BME280;33066;49.296;14.470;2023-06-22T11:22:34;97049.91;;;34.32;32.20
47082;BME280;33066;49.296;14.470;2023-06-22T11:24:59;97042.74;;;34.75;31.13
47082;BME280;33066;49.296;14.470;2023-06-22T11:27:25;97043.24;;;34.60;30.77
47082;BME280;33066;49.296;14.470;2023-06-22T11:29:50;97037.41;;;34.65;31.24
47082;BME280;33066;49.296;14.470;2023-06-22T11:32:17;97034.46;;;34.46;31.26
47082;BME280;33066;49.296;14.470;2023-06-22T11:34:41;97031.00;;;34.72;31.56
47082;BME280;33066;49.296;14.470;2023-06-22T11:37:07;97027.25;;;34.70;30.04
47082;BME280;33066;49.296;14.470;2023-06-22T11:39:33;97030.04;;;35.16;31.32
47082;BME280;33066;49.296;14.470;2023-06-22T11:41:58;97023.30;;;35.15;30.46
47082;BME280;33066;49.296;14.470;2023-06-22T11:44:24;97021.77;;;35.12;31.78
47082;BME280;33066;49.296;14.470;2023-06-22T11:46:49;97018.30;;;35.38;30.18
47082;BME280;33066;49.296;14.470;2023-06-22T11:49:15;97014.23;;;35.36;30.88
47082;BME280;33066;49.296;14.470;2023-06-22T11:51:41;97008.33;;;35.35;31.83
47082;BME280;33066;49.296;14.470;2023-06-22T11:54:06;97005.78;;;35.84;31.03
47082;BME280;33066;49.296;14.470;2023-06-22T11:56:33;97003.86;;;36.03;31.13
47082;BME280;33066;49.296;14.470;2023-06-22T11:58:58;97003.04;;;34.84;30.41
47082;BME280;33066;49.296;14.470;2023-06-22T12:01:23;97002.19;;;36.66;28.97
47082;BME280;33066;49.296;14.470;2023-06-22T12:03:49;96996.25;;;36.69;28.14
47082;BME280;33066;49.296;14.470;2023-06-22T12:06:14;96999.65;;;36.23;28.13
47082;BME280;33066;49.296;14.470;2023-06-22T12:08:40;96996.82;;;36.49;28.77
47082;BME280;33066;49.296;14.470;2023-06-22T12:11:05;96998.44;;;36.50;28.23
47082;BME280;33066;49.296;14.470;2023-06-22T12:13:31;96997.94;;;36.22;28.63
47082;BME280;33066;49.296;14.470;2023-06-22T12:15:56;96997.93;;;36.15;27.82
47082;BME280;33066;49.296;14.470;2023-06-22T12:18:24;96992.29;;;36.58;27.75
47082;BME280;33066;49.296;14.470;2023-06-22T12:20:48;96994.75;;;36.60;28.61
47082;BME280;33066;49.296;14.470;2023-06-22T12:23:15;96987.83;;;37.23;29.62
47082;BME280;33066;49.296;14.470;2023-06-22T12:25:39;96985.38;;;36.87;27.95
47082;BME280;33066;49.296;14.470;2023-06-22T12:28:04;96990.48;;;36.88;27.84
47082;BME280;33066;49.296;14.470;2023-06-22T12:30:30;96988.86;;;36.86;26.33
47082;BME280;33066;49.296;14.470;2023-06-22T12:32:57;96987.39;;;36.79;26.18
47082;BME280;33066;49.296;14.470;2023-06-22T12:35:21;96988.38;;;37.12;26.32
47082;BME280;33066;49.296;14.470;2023-06-22T12:37:47;96982.23;;;37.26;26.27
47082;BME280;33066;49.296;14.470;2023-06-22T12:40:14;96979.71;;;37.18;26.51